Time;durP1;ratioP1;P1;durP2;ratioP2;P2;SDS_P1;SDS_P2;PMS_P1;PMS_P2;Temp;Humidity;BMP_temperature;BMP_pressure;BME280_temperature;BME280_humidity;BME280_pressure;Samples;Min_cycle;Max_cycle;Signal;HPM_P1;HPM_P2
2022/02/09 00:01:23;;;;;;;5.97;5.57;;;;;;;4.55;70.36;100192.63;444780;117;922158;-78
2022/02/09 00:02:32;;;;;;;5.37;4.97;;;;;;;4.52;70.43;100198.38;444630;119;922023;-77
2022/02/09 00:03:26;;;;;;;5.61;5.18;;;;;;;4.50;70.70;100197.75;442996;118;922376;-82
2022/02/09 00:04:39;;;;;;;5.14;4.75;;;;;;;4.49;70.86;100198.77;444625;118;922340;-78
2022/02/09 00:05:56;;;;;;;5.26;4.92;;;;;;;4.50;70.88;100203.15;443724;118;922715;-78
2022/02/09 00:08:02;;;;;;;6.08;5.67;;;;;;;4.49;71.03;100193.37;444633;116;922302;-81
2022/02/09 00:09:05;;;;;;;5.77;5.37;;;;;;;4.51;71.07;100199.44;444490;118;922516;-78
2022/02/09 00:10:09;;;;;;;5.47;5.11;;;;;;;4.51;70.87;100199.44;445126;116;922374;-80
2022/02/09 00:11:18;;;;;;;5.37;5.08;;;;;;;4.51;70.71;100201.29;444502;119;930286;-79
2022/02/09 00:12:23;;;;;;;5.54;5.14;;;;;;;4.49;70.58;100195.23;444502;118;922070;-81
2022/02/09 00:15:06;;;;;;;5.25;4.87;;;;;;;4.42;70.82;100192.42;444525;115;922631;-78
2022/02/09 00:16:27;;;;;;;6.26;5.76;;;;;;;4.43;71.00;100198.66;441028;115;922293;-78
2022/02/09 00:18:35;;;;;;;6.04;5.64;;;;;;;4.44;70.93;100203.05;443178;118;922673;-81
2022/02/09 00:24:44;;;;;;;6.23;5.80;;;;;;;4.47;70.77;100191.86;460090;112;922648;-80
2022/02/09 00:27:21;;;;;;;;;;;;;;;4.47;70.86;100197.26;459632;113;922123;-80
2022/02/09 00:30:00;;;;;;;4.92;4.61;;;;;;;4.45;70.72;100192.07;456273;114;923214;-81
2022/02/09 00:31:16;;;;;;;4.99;4.59;;;;;;;4.43;70.61;100195.96;454526;114;922816;-82
2022/02/09 00:36:55;;;;;;;5.22;4.81;;;;;;;4.39;70.55;100186.56;457479;114;922727;-81
2022/02/09 01:38:50;;;;;;;3.41;3.21;;;;;;;3.62;71.78;100215.55;449906;115;922658;-78
2022/02/09 01:55:29;;;;;;;4.08;3.68;;;;;;;3.22;74.17;100220.17;434142;120;922790;-81
2022/02/09 01:56:32;;;;;;;4.82;4.45;;;;;;;3.21;74.47;100221.17;436597;119;922581;-81
2022/02/09 01:57:36;;;;;;;4.74;4.36;;;;;;;3.23;74.51;100226.39;436772;119;923117;-81
2022/02/09 01:58:39;;;;;;;4.30;4.00;;;;;;;3.23;74.45;100231.78;436736;119;922774;-82
2022/02/09 01:59:45;;;;;;;4.47;4.17;;;;;;;3.24;74.33;100230.77;436773;121;922705;-79
2022/02/09 02:00:48;;;;;;;3.67;3.37;;;;;;;3.24;74.44;100228.08;436615;120;922583;-82
2022/02/09 02:01:51;;;;;;;4.27;3.97;;;;;;;3.23;74.45;100235.32;436053;119;922591;-81
2022/02/09 02:02:55;;;;;;;3.54;3.29;;;;;;;3.25;74.77;100233.27;436563;119;922698;-80
2022/02/09 02:03:58;;;;;;;4.48;4.18;;;;;;;3.27;74.94;100225.02;436244;120;930501;-79
2022/02/09 02:05:01;;;;;;;3.41;3.21;;;;;;;3.29;74.70;100231.08;435907;120;930716;-78
2022/02/09 02:06:04;;;;;;;4.16;3.86;;;;;;;3.29;74.10;100223.00;436594;119;923033;-79
2022/02/09 02:07:20;;;;;;;3.84;3.54;;;;;;;3.28;74.04;100232.09;436211;119;922558;-78
2022/02/09 02:08:15;;;;;;;3.46;3.23;;;;;;;3.25;73.75;100230.58;434755;121;922664;-81
2022/02/09 02:09:20;;;;;;;3.47;3.25;;;;;;;3.22;73.82;100228.25;436715;119;923139;-80
2022/02/09 02:10:36;;;;;;;3.67;3.37;;;;;;;3.16;74.39;100223.56;436977;119;923070;-78
2022/02/09 02:11:43;;;;;;;3.23;3.03;;;;;;;3.13;74.99;100223.09;435487;121;930525;-80
2022/02/09 02:17:58;;;;;;;3.97;3.67;;;;;;;3.18;76.71;100228.78;474177;109;946879;-79
2022/02/09 02:19:09;;;;;;;3.78;3.48;;;;;;;3.07;76.99;100234.55;470621;111;922443;-76
2022/02/09 02:20:35;;;;;;;3.87;3.57;;;;;;;3.07;77.20;100230.02;460342;114;922619;-78
2022/02/09 02:21:52;;;;;;;3.47;3.17;;;;;;;3.09;77.35;100227.16;459912;113;923082;-77
2022/02/09 02:23:07;;;;;;;3.33;3.10;;;;;;;3.10;77.33;100228.80;458054;113;922622;-79
2022/02/09 02:25:39;;;;;;;3.49;3.20;;;;;;;3.10;77.20;100226.11;459951;114;922565;-82
2022/02/09 02:29:08;;;;;;;3.39;3.18;;;;;;;3.10;76.81;100226.95;460897;114;923117;-81
2022/02/09 02:36:23;;;;;;;3.83;3.53;;;;;;;3.15;77.46;100234.50;504295;103;946905;-77
2022/02/09 02:40:02;;;;;;;4.28;3.98;;;;;;;3.01;77.48;100236.09;492479;105;922710;-80
2022/02/09 02:44:02;;;;;;;4.28;3.98;;;;;;;3.03;77.84;100234.08;490272;105;922525;-79
2022/02/09 03:12:07;;;;;;;3.79;3.49;;;;;;;3.00;77.14;100237.10;490798;105;922724;-79
2022/02/09 03:13:10;;;;;;;3.96;3.66;;;;;;;2.99;77.52;100237.27;489257;105;922498;-76
2022/02/09 03:14:23;;;;;;;4.12;3.81;;;;;;;2.98;77.82;100238.31;491182;105;922186;-79
2022/02/09 03:16:40;;;;;;;4.52;4.17;;;;;;;2.94;77.87;100235.95;492496;105;922661;-78
2022/02/09 03:17:40;;;;;;;3.84;3.54;;;;;;;2.91;77.75;100241.70;493103;105;922726;-78
2022/02/09 03:19:12;;;;;;;3.95;3.65;;;;;;;2.90;77.34;100241.86;491451;105;922594;-80
2022/02/09 03:20:02;;;;;;;5.09;4.09;;;;;;;2.86;77.82;100232.45;490267;105;922641;-77
2022/02/09 03:21:17;;;;;;;4.30;3.96;;;;;;;2.84;78.42;100238.00;492708;105;923254;-80
2022/02/09 03:22:30;;;;;;;4.32;4.02;;;;;;;2.83;78.63;100238.17;489143;105;922770;-80
2022/02/09 03:42:14;;;;;;;4.21;3.89;;;;;;;2.64;81.07;100235.89;490833;105;922505;-78
2022/02/09 03:43:39;;;;;;;3.46;3.16;;;;;;;2.47;82.87;100254.77;493643;105;922586;-76
2022/02/09 03:44:35;;;;;;;3.24;2.99;;;;;;;2.45;83.25;100247.86;491123;105;922445;-78
2022/02/09 03:46:08;;;;;;;3.38;3.12;;;;;;;2.45;83.63;100253.23;490799;105;922689;-81
2022/02/09 03:47:15;;;;;;;3.18;2.87;;;;;;;2.45;83.66;100248.70;486563;105;922973;-79
2022/02/09 03:50:53;;;;;;;3.18;2.88;;;;;;;2.45;83.79;100250.55;489075;105;922525;-79
2022/02/09 03:51:56;;;;;;;3.08;2.73;;;;;;;2.45;83.56;100253.23;487627;105;922805;-79
2022/02/09 03:54:24;;;;;;;;;;;;;;;2.41;83.19;100246.53;494295;105;922189;-79
2022/02/09 03:55:40;;;;;;;2.84;2.58;;;;;;;2.39;83.26;100252.06;488828;105;922299;-78
2022/02/09 03:57:23;;;;;;;3.89;2.99;;;;;;;2.38;83.41;100257.61;486975;105;922654;-79
2022/02/09 03:57:46;;;;;;;3.34;2.91;;;;;;;2.39;83.54;100259.30;474403;105;922702;-81
2022/02/09 03:58:49;;;;;;;3.53;2.63;;;;;;;2.38;83.16;100258.45;490768;105;922687;-80
2022/02/09 03:59:52;;;;;;;3.33;3.02;;;;;;;2.37;82.25;100255.95;491304;105;922685;-77
2022/02/09 04:00:55;;;;;;;2.99;2.66;;;;;;;2.35;82.44;100264.19;490916;105;922752;-82
2022/02/09 04:02:00;;;;;;;2.92;2.62;;;;;;;2.33;82.09;100257.28;489750;105;930503;-79
2022/02/09 04:03:06;;;;;;;2.48;2.17;;;;;;;2.33;82.01;100259.97;491268;105;922500;-78
2022/02/09 04:04:09;;;;;;;3.21;2.88;;;;;;;2.33;82.10;100262.66;492199;105;922670;-81
2022/02/09 04:05:14;;;;;;;4.04;3.28;;;;;;;2.36;81.91;100260.49;492319;105;922567;-79
2022/02/09 04:06:18;;;;;;;3.17;2.79;;;;;;;2.38;81.68;100262.99;476136;109;922678;-79
2022/02/09 04:07:21;;;;;;;3.04;2.44;;;;;;;2.38;81.70;100263.84;478804;108;922531;-78
2022/02/09 04:08:29;;;;;;;3.38;2.56;;;;;;;2.40;81.44;100269.90;475253;109;922491;-78
2022/02/09 04:09:31;;;;;;;5.62;3.92;;;;;;;2.40;81.39;100256.45;475339;109;922927;-81
2022/02/09 04:10:40;;;;;;;3.09;2.79;;;;;;;2.41;81.06;100270.74;493695;105;922721;-78
2022/02/09 04:13:14;;;;;;;3.27;2.95;;;;;;;2.41;80.75;100268.05;487537;105;922766;-79
2022/02/09 04:14:17;;;;;;;3.57;2.64;;;;;;;2.42;80.73;100273.27;489191;105;922994;-78
2022/02/09 04:15:45;;;;;;;3.46;2.49;;;;;;;2.43;80.04;100274.08;487831;105;922930;-79
2022/02/09 04:16:42;;;;;;;3.27;2.57;;;;;;;2.41;79.61;100270.74;487890;105;922583;-78
2022/02/09 04:17:46;;;;;;;3.96;2.93;;;;;;;2.40;79.74;100277.13;489144;105;922428;-79
2022/02/09 04:38:44;;;;;;;;;;;;;;;2.34;77.24;100293.94;493677;105;930129;-81
2022/02/09 04:39:51;;;;;;;3.99;3.22;;;;;;;2.35;77.30;100290.25;489219;105;922279;-78
2022/02/09 04:50:51;;;;;;;2.44;2.24;;;;;;;2.34;75.72;100310.93;490941;105;922620;-80
2022/02/09 04:54:30;;;;;;;2.90;2.57;;;;;;;2.46;78.82;100314.97;470023;110;947871;-81
2022/02/09 04:56:47;;;;;;;3.11;2.18;;;;;;;2.31;77.79;100332.80;460717;112;922814;-78
2022/02/09 04:57:56;;;;;;;2.04;1.67;;;;;;;2.29;76.25;100337.50;460093;113;922921;-79
2022/02/09 05:04:20;;;;;;;3.79;2.62;;;;;;;2.33;75.98;100336.14;455722;114;922643;-79
2022/02/09 05:19:53;;;;;;;2.28;1.97;;;;;;;2.29;74.75;100348.26;457592;114;922713;-79
2022/02/09 05:22:50;;;;;;;3.11;1.81;;;;;;;2.31;74.12;100365.08;456416;114;922667;-79
2022/02/09 05:24:04;;;;;;;2.28;1.81;;;;;;;2.33;74.21;100370.27;454637;114;922716;-79
2022/02/09 05:26:19;;;;;;;2.72;1.81;;;;;;;2.36;73.82;100367.27;457414;114;922608;-79
2022/02/09 05:27:22;;;;;;;2.78;1.75;;;;;;;2.36;73.22;100369.95;455394;114;922619;-80
2022/02/09 05:28:23;;;;;;;2.86;1.77;;;;;;;2.34;73.24;100371.96;456366;113;922325;-78
2022/02/09 05:29:27;;;;;;;4.29;2.53;;;;;;;2.34;73.31;100366.58;458096;113;923452;-82
2022/02/09 05:30:31;;;;;;;1.57;1.47;;;;;;;2.34;73.31;100370.12;457433;114;931041;-77
2022/02/09 05:31:34;;;;;;;1.45;1.35;;;;;;;2.37;73.14;100375.15;458319;114;922551;-80
2022/02/09 05:32:37;;;;;;;1.71;1.49;;;;;;;2.36;72.89;100372.65;459205;114;930349;-77
2022/02/09 05:33:40;;;;;;;2.50;1.84;;;;;;;2.36;72.78;100372.65;458867;113;922744;-81
2022/02/09 05:34:43;;;;;;;2.20;1.94;;;;;;;2.37;72.62;100375.15;443946;118;923082;-79
2022/02/09 05:35:47;;;;;;;2.19;1.79;;;;;;;2.36;72.70;100370.80;443461;118;923358;-82
2022/02/09 05:36:50;;;;;;;2.94;1.85;;;;;;;2.36;72.72;100370.80;457650;113;922579;-82
2022/02/09 05:37:56;;;;;;;2.53;1.74;;;;;;;2.39;72.88;100375.83;457813;114;923148;-80
2022/02/09 05:39:00;;;;;;;2.59;1.84;;;;;;;2.41;72.62;100373.83;458403;114;922465;-79
2022/02/09 05:40:04;;;;;;;2.54;2.02;;;;;;;2.43;72.59;100379.86;458457;114;922624;-79
2022/02/09 05:41:08;;;;;;;2.34;1.66;;;;;;;2.44;72.18;100380.70;458175;114;930282;-79
2022/02/09 05:42:11;;;;;;;3.04;1.77;;;;;;;2.42;71.90;100378.20;457047;113;922687;-80
2022/02/09 05:43:15;;;;;;;2.21;1.62;;;;;;;2.39;71.56;100378.52;457016;114;930788;-76
2022/02/09 05:44:18;;;;;;;2.71;1.81;;;;;;;2.37;71.81;100379.72;457164;114;922665;-79
2022/02/09 05:45:25;;;;;;;2.90;1.94;;;;;;;2.37;72.01;100379.72;456955;114;930430;-81
2022/02/09 05:50:15;;;;;;;1.45;1.29;;;;;;;2.43;70.92;100384.40;456900;114;923272;-78
2022/02/09 05:51:32;;;;;;;2.76;1.46;;;;;;;2.39;70.65;100386.59;458694;114;922476;-82
2022/02/09 05:52:43;;;;;;;1.57;1.47;;;;;;;2.37;70.69;100385.09;458966;114;922549;-82
2022/02/09 05:56:07;;;;;;;2.24;1.89;;;;;;;2.36;71.23;100383.41;457180;114;922570;-78
2022/02/09 05:59:32;;;;;;;1.92;1.45;;;;;;;2.47;71.54;100381.23;458309;114;922684;-77
2022/02/09 06:00:36;;;;;;;1.72;1.36;;;;;;;2.51;71.21;100376.34;453817;114;922576;-79
2022/02/09 06:01:39;;;;;;;2.47;1.41;;;;;;;2.50;70.52;100370.13;443499;117;922992;-79
2022/02/09 06:02:43;;;;;;;2.52;1.68;;;;;;;2.47;70.00;100381.23;444441;115;922621;-76
2022/02/09 06:03:46;;;;;;;1.78;1.54;;;;;;;2.45;70.09;100377.02;453416;115;922506;-78
2022/02/09 06:04:49;;;;;;;2.75;1.62;;;;;;;2.42;70.14;100372.83;452793;115;922648;-81
2022/02/09 06:05:52;;;;;;;4.58;1.66;;;;;;;2.40;70.18;100368.61;453651;115;923579;-79
2022/02/09 06:06:57;;;;;;;2.25;1.61;;;;;;;2.39;70.34;100374.98;451693;115;922587;-76
2022/02/09 06:08:00;;;;;;;1.89;1.48;;;;;;;2.41;70.49;100383.75;453857;115;923015;-79
2022/02/09 06:09:03;;;;;;;1.52;1.14;;;;;;;2.43;70.61;100385.25;451611;115;930556;-77
2022/02/09 06:10:15;;;;;;;2.74;1.64;;;;;;;2.47;70.08;100383.08;451341;115;923660;-77
2022/02/09 06:11:34;;;;;;;3.03;1.44;;;;;;;2.50;69.93;100382.73;451465;115;922607;-76
2022/02/09 06:12:41;;;;;;;2.31;1.50;;;;;;;2.50;70.12;100378.20;454856;115;922555;-79
2022/02/09 06:15:14;;;;;;;2.44;1.34;;;;;;;2.58;70.16;100387.28;445797;115;922623;-77
2022/02/09 06:19:37;;;;;;;2.09;1.47;;;;;;;2.61;70.11;100382.39;451019;115;922652;-79
2022/02/09 06:19:53;;;;;;;2.45;1.91;;;;;;;2.73;69.71;100385.59;453684;115;923041;-76
2022/02/09 06:21:02;;;;;;;2.54;1.69;;;;;;;2.76;69.41;100379.86;455764;115;922519;-72
2022/02/09 06:22:01;;;;;;;2.44;1.99;;;;;;;2.79;69.36;100377.69;452896;115;922791;-80
2022/02/09 06:23:05;;;;;;;2.14;1.80;;;;;;;2.83;69.50;100378.17;454432;115;923036;-76
2022/02/09 06:24:08;;;;;;;2.74;2.29;;;;;;;2.85;69.32;100370.78;453305;115;922623;-76
2022/02/09 06:25:11;;;;;;;3.52;2.06;;;;;;;2.89;69.35;100374.80;454358;115;923051;-73
2022/02/09 06:26:16;;;;;;;2.97;2.04;;;;;;;2.92;69.18;100374.48;451264;115;922575;-75
2022/02/09 06:27:19;;;;;;;3.95;2.25;;;;;;;2.96;69.05;100375.81;453181;115;922872;-83
2022/02/09 06:28:23;;;;;;;2.81;2.21;;;;;;;2.98;68.60;100378.34;452889;115;922765;-73
2022/02/09 06:29:26;;;;;;;2.48;2.05;;;;;;;2.96;67.59;100369.58;452911;115;922785;-76
2022/02/09 06:30:30;;;;;;;3.23;2.37;;;;;;;2.91;67.33;100376.33;452273;115;922446;-75
2022/02/09 06:31:34;;;;;;;2.94;2.20;;;;;;;2.87;67.69;100374.97;452972;115;922976;-76
2022/02/09 06:32:38;;;;;;;4.09;2.83;;;;;;;2.86;67.55;100376.00;452416;115;922554;-76
2022/02/09 06:33:41;;;;;;;3.21;2.58;;;;;;;2.84;67.56;100378.02;453097;115;922536;-77
2022/02/09 06:34:45;;;;;;;3.81;1.95;;;;;;;2.82;67.53;100380.02;452669;115;922907;-74
2022/02/09 06:35:49;;;;;;;4.97;2.59;;;;;;;2.78;66.66;100397.54;451747;115;922610;-76
2022/02/09 06:37:09;;;;;;;3.22;2.88;;;;;;;2.73;66.74;100390.98;450913;115;923695;-76
2022/02/09 06:38:04;;;;;;;3.47;2.61;;;;;;;2.68;67.19;100394.18;452356;115;922664;-79
2022/02/09 06:39:10;;;;;;;4.27;2.84;;;;;;;2.66;67.38;100388.11;454629;115;922714;-75
2022/02/09 06:40:16;;;;;;;3.06;2.33;;;;;;;2.66;67.53;100392.66;452089;115;922645;-76
2022/02/09 06:41:20;;;;;;;2.76;2.41;;;;;;;2.68;67.45;100404.11;453095;115;922574;-77
2022/02/09 06:42:25;;;;;;;2.83;2.54;;;;;;;2.67;67.38;100395.19;455829;115;922614;-78
2022/02/09 06:43:30;;;;;;;1.92;1.76;;;;;;;2.68;67.41;100396.03;442138;117;930496;-76
2022/02/09 06:44:33;;;;;;;2.11;1.91;;;;;;;2.68;67.38;100402.25;442308;115;923671;-74
2022/02/09 06:45:39;;;;;;;1.89;1.59;;;;;;;2.66;66.71;100404.27;452759;115;930405;-76
2022/02/09 06:46:42;;;;;;;2.02;1.63;;;;;;;2.65;66.65;100401.73;452978;115;930482;-73
2022/02/09 06:47:45;;;;;;;2.35;1.74;;;;;;;2.63;66.82;100401.92;453684;115;922614;-74
2022/02/09 06:48:49;;;;;;;2.50;1.55;;;;;;;2.63;66.87;100399.23;453650;115;922547;-75
2022/02/09 06:50:02;;;;;;;2.39;1.76;;;;;;;2.62;66.97;100405.62;453970;115;923223;-73
2022/02/09 06:51:13;;;;;;;2.45;1.79;;;;;;;2.63;67.02;100410.00;453654;115;922662;-78
2022/02/09 06:52:13;;;;;;;;;;;;;;;2.60;66.34;100401.39;456384;115;922281;-77
2022/02/09 06:54:32;;;;;;;2.07;1.66;;;;;;;2.50;66.68;100398.88;452062;115;923332;-76
2022/02/09 06:55:43;;;;;;;3.23;1.88;;;;;;;2.49;66.75;100400.72;452376;115;922660;-78
2022/02/09 06:59:11;;;;;;;2.21;1.83;;;;;;;2.51;66.45;100398.72;451432;115;922737;-80
2022/02/09 07:00:01;;;;;;;2.48;1.66;;;;;;;2.50;66.36;100399.72;451607;114;923160;-74
2022/02/09 07:01:06;;;;;;;2.62;1.79;;;;;;;2.45;65.69;100394.00;457632;114;922787;-73
2022/02/09 07:02:10;;;;;;;2.39;1.66;;;;;;;2.42;65.95;100394.35;457408;115;922736;-76
2022/02/09 07:03:14;;;;;;;2.06;1.54;;;;;;;2.39;66.05;100400.05;457330;113;922644;-76
2022/02/09 07:04:17;;;;;;;2.67;2.02;;;;;;;2.39;66.14;100400.05;457102;113;922741;-76
2022/02/09 07:05:20;;;;;;;2.89;1.96;;;;;;;2.39;66.39;100399.20;458017;115;922559;-76
2022/02/09 07:06:25;;;;;;;3.28;2.38;;;;;;;2.42;66.58;100396.20;458077;115;922488;-75
2022/02/09 07:07:28;;;;;;;2.17;1.74;;;;;;;2.44;66.64;100399.55;457154;114;922710;-76
2022/02/09 07:08:32;;;;;;;3.87;2.24;;;;;;;2.47;66.47;100399.23;457671;113;925538;-74
2022/02/09 07:09:35;;;;;;;3.56;2.13;;;;;;;2.48;66.18;100396.34;458219;113;923054;-75
2022/02/09 07:10:41;;;;;;;3.22;2.09;;;;;;;2.48;66.39;100404.42;457148;115;930458;-75
2022/02/09 07:11:44;;;;;;;2.59;1.95;;;;;;;2.46;65.96;100402.92;458239;114;922684;-74
2022/02/09 07:12:47;;;;;;;2.17;1.92;;;;;;;2.44;65.93;100400.39;457279;115;930946;-76
2022/02/09 07:13:51;;;;;;;3.42;1.99;;;;;;;2.40;65.41;100412.50;457107;115;930487;-72
2022/02/09 07:14:55;;;;;;;2.64;1.99;;;;;;;2.34;65.70;100405.09;457903;114;923036;-74
2022/02/09 07:16:04;;;;;;;5.46;2.51;;;;;;;2.31;66.03;100401.91;457655;115;922716;-77
2022/02/09 07:17:03;;;;;;;3.90;2.37;;;;;;;2.29;65.93;100406.59;458273;113;922572;-74
2022/02/09 07:18:10;;;;;;;4.14;2.82;;;;;;;2.28;66.13;100405.75;457692;115;922705;-75
2022/02/09 07:19:11;;;;;;;3.14;2.37;;;;;;;2.27;66.02;100405.91;457879;115;930642;-76
2022/02/09 07:20:21;;;;;;;4.26;2.57;;;;;;;2.25;66.05;100400.72;457734;114;922795;-75
2022/02/09 07:21:27;;;;;;;2.95;2.45;;;;;;;2.25;66.03;100405.25;457395;113;930675;-74
2022/02/09 07:22:28;;;;;;;2.39;2.19;;;;;;;2.23;66.10;100399.19;458070;115;923255;-77
2022/02/09 07:23:45;;;;;;;3.14;2.64;;;;;;;2.25;66.30;100416.86;457311;115;922819;-74
2022/02/09 07:24:46;;;;;;;4.70;2.72;;;;;;;2.26;66.10;100404.25;456999;115;922804;-74
2022/02/09 07:27:39;;;;;;;4.07;2.34;;;;;;;2.32;66.02;100403.56;458376;114;928860;-74
2022/02/09 07:28:30;;;;;;;2.32;1.92;;;;;;;2.32;65.88;100398.18;455299;115;922634;-77
2022/02/09 07:29:34;;;;;;;1.99;1.60;;;;;;;2.32;65.95;100396.33;457761;113;922558;-72
2022/02/09 07:30:37;;;;;;;1.78;1.64;;;;;;;2.32;65.61;100401.71;457161;114;922924;-74
2022/02/09 07:31:41;;;;;;;1.99;1.58;;;;;;;2.33;65.62;100416.01;458374;114;922922;-75
2022/02/09 07:32:44;;;;;;;2.36;1.88;;;;;;;2.32;65.74;100414.31;457293;114;922597;-74
2022/02/09 07:33:47;;;;;;;2.73;1.87;;;;;;;2.32;65.83;100411.62;458168;115;922655;-76
2022/02/09 07:34:50;;;;;;;1.75;1.65;;;;;;;2.29;65.39;100410.13;457869;115;922726;-72
2022/02/09 07:35:53;;;;;;;3.56;1.94;;;;;;;2.29;65.57;100410.13;458091;114;922747;-75
2022/02/09 07:36:56;;;;;;;3.99;2.44;;;;;;;2.30;65.81;100417.20;457859;113;922942;-74
2022/02/09 07:38:00;;;;;;;2.61;1.72;;;;;;;2.34;65.96;100415.01;457888;115;922609;-73
2022/02/09 07:39:09;;;;;;;2.05;1.58;;;;;;;2.38;65.55;100416.34;458223;115;922589;-76
2022/02/09 07:40:13;;;;;;;3.29;1.98;;;;;;;2.36;65.33;100421.92;458138;115;922626;-73
2022/02/09 07:41:18;;;;;;;2.63;1.56;;;;;;;2.35;65.41;100417.54;457900;115;922668;-74
2022/02/09 07:42:26;;;;;;;3.26;2.12;;;;;;;2.36;65.55;100426.45;457982;114;922469;-77
2022/02/09 07:51:55;;;;;;;4.08;1.79;;;;;;;2.28;65.65;100429.96;457678;113;922891;-77
2022/02/09 07:52:24;;;;;;;2.76;2.25;;;;;;;2.31;65.63;100439.56;451190;115;922888;-73
2022/02/09 07:53:36;;;;;;;3.57;2.28;;;;;;;2.31;65.53;100434.19;457523;113;922667;-78
2022/02/09 07:54:32;;;;;;;2.78;1.82;;;;;;;2.33;65.85;100432.15;457712;113;923396;-75
2022/02/09 07:55:37;;;;;;;3.26;2.18;;;;;;;2.36;65.33;100426.45;458387;115;922626;-73
2022/02/09 07:56:44;;;;;;;1.91;1.65;;;;;;;2.37;65.37;100433.53;458215;115;923062;-74
2022/02/09 07:57:47;;;;;;;1.70;1.50;;;;;;;2.36;64.66;100439.91;456949;113;930483;-77
2022/02/09 07:58:50;;;;;;;1.61;1.41;;;;;;;2.33;64.73;100433.00;457968;113;923578;-74
2022/02/09 07:59:53;;;;;;;1.81;1.56;;;;;;;2.31;64.94;100440.41;457806;113;922562;-74
2022/02/09 08:00:57;;;;;;;1.70;1.27;;;;;;;2.30;65.09;100440.56;457518;114;923520;-77
2022/02/09 08:02:00;;;;;;;1.87;1.25;;;;;;;2.29;65.05;100441.56;458079;115;923076;-77
2022/02/09 08:03:04;;;;;;;2.87;1.32;;;;;;;2.30;65.34;100441.41;457988;115;923027;-73
2022/02/09 08:04:09;;;;;;;2.31;1.75;;;;;;;2.33;65.37;100435.69;458226;115;922565;-77
2022/02/09 08:05:12;;;;;;;1.65;1.40;;;;;;;2.37;65.36;100445.10;457717;114;923374;-74
2022/02/09 08:06:17;;;;;;;2.50;1.54;;;;;;;2.41;65.31;100442.94;457634;113;922736;-76
2022/02/09 08:07:21;;;;;;;2.44;1.13;;;;;;;2.40;64.45;100447.48;457126;115;930160;-75
2022/02/09 08:08:29;;;;;;;1.64;1.41;;;;;;;2.38;64.31;100449.48;458294;115;922561;-75
2022/02/09 08:09:35;;;;;;;2.09;1.58;;;;;;;2.34;64.27;100449.98;457569;114;922651;-76
2022/02/09 08:10:47;;;;;;;1.56;1.46;;;;;;;2.31;64.06;100459.24;457097;115;922533;-77
2022/02/09 08:22:51;;;;;;;2.48;2.28;;;;;;;2.28;64.36;100450.64;457333;114;922621;-78
2022/02/09 08:27:39;;;;;;;2.92;2.25;;;;;;;2.41;63.61;100456.39;457139;115;922345;-76
2022/02/09 08:30:04;;;;;;;2.45;2.12;;;;;;;2.36;63.63;100456.89;457715;115;923425;-80
2022/02/09 08:33:35;;;;;;;3.34;2.41;;;;;;;2.43;64.31;100457.05;457446;114;923053;-76
2022/02/09 08:34:39;;;;;;;3.02;2.29;;;;;;;2.49;64.18;100451.86;458209;114;923099;-77
2022/02/09 08:35:47;;;;;;;2.90;2.35;;;;;;;2.54;64.29;100458.61;457884;115;922874;-74
2022/02/09 08:36:52;;;;;;;3.28;2.63;;;;;;;2.59;64.20;100456.27;458093;114;922626;-76
2022/02/09 08:37:57;;;;;;;2.66;2.19;;;;;;;2.63;63.65;100454.91;457978;114;922664;-75
2022/02/09 08:39:00;;;;;;;3.54;2.69;;;;;;;2.63;63.60;100454.91;458178;113;922639;-76
2022/02/09 08:40:06;;;;;;;2.87;2.17;;;;;;;2.63;63.28;100457.60;457194;114;922987;-78
2022/02/09 08:41:10;;;;;;;2.98;2.03;;;;;;;2.63;63.11;100444.14;457980;114;923388;-75
2022/02/09 08:42:13;;;;;;;3.59;2.39;;;;;;;2.63;62.97;100453.06;457854;115;922903;-72
2022/02/09 08:43:16;;;;;;;3.23;2.69;;;;;;;2.63;63.00;100453.06;457959;115;922701;-77
2022/02/09 08:44:19;;;;;;;4.49;2.75;;;;;;;2.62;62.89;100462.14;457178;115;930413;-79
2022/02/09 08:45:23;;;;;;;4.56;2.89;;;;;;;2.63;62.78;100463.83;458240;114;922605;-77
2022/02/09 08:46:28;;;;;;;2.76;2.39;;;;;;;2.62;62.90;100463.98;451337;116;922894;-76
2022/02/09 08:47:31;;;;;;;2.42;2.22;;;;;;;2.62;62.93;100464.83;451648;115;922636;-76
2022/02/09 08:48:34;;;;;;;2.97;2.62;;;;;;;2.64;63.08;100467.37;457848;115;922721;-74
2022/02/09 08:49:39;;;;;;;2.58;2.02;;;;;;;2.65;63.18;100467.17;458464;115;922544;-75
2022/02/09 08:50:42;;;;;;;2.28;1.85;;;;;;;2.68;62.88;100476.78;458626;115;923042;-75
2022/02/09 08:51:46;;;;;;;2.61;2.22;;;;;;;2.71;62.78;100474.59;457756;113;922562;-77
2022/02/09 08:52:52;;;;;;;2.88;2.21;;;;;;;2.70;62.06;100478.28;458337;115;922678;-76
2022/02/09 08:53:56;;;;;;;2.47;2.25;;;;;;;2.69;62.17;100487.39;458050;115;923025;-77
2022/02/09 08:55:03;;;;;;;2.65;2.31;;;;;;;2.67;61.46;100475.09;458526;113;922631;-74
2022/02/09 08:56:10;;;;;;;2.78;2.44;;;;;;;2.65;61.89;100477.94;458294;114;922694;-76
2022/02/09 08:57:13;;;;;;;4.37;2.96;;;;;;;2.65;62.15;100477.94;457424;114;923745;-76
2022/02/09 08:58:19;;;;;;;3.09;2.57;;;;;;;2.68;62.37;100477.63;457874;115;922719;-75
2022/02/09 08:59:26;;;;;;;4.16;2.88;;;;;;;2.72;62.28;100472.74;457866;115;922602;-77
2022/02/09 09:00:31;;;;;;;3.05;2.57;;;;;;;2.75;62.26;100470.58;457594;114;922431;-76
2022/02/09 09:01:41;;;;;;;3.56;3.07;;;;;;;2.77;62.18;100479.31;456646;114;922698;-74
2022/02/09 09:02:46;;;;;;;2.85;2.56;;;;;;;2.81;62.16;100474.45;456680;114;922650;-74
2022/02/09 09:03:51;;;;;;;2.78;2.34;;;;;;;2.81;62.12;100477.95;457737;113;922982;-78
2022/02/09 09:04:56;;;;;;;2.81;2.40;;;;;;;2.84;62.21;100480.33;456278;114;922763;-73
2022/02/09 09:06:01;;;;;;;2.69;2.46;;;;;;;2.86;62.07;100481.02;456661;114;922848;-75
2022/02/09 09:07:12;;;;;;;3.50;2.42;;;;;;;2.89;61.93;100486.05;455474;114;922674;-77
2022/02/09 09:08:34;;;;;;;2.82;2.41;;;;;;;2.92;61.70;100483.02;457048;114;922982;-72
2022/02/09 09:09:42;;;;;;;3.08;2.38;;;;;;;2.95;61.60;100487.23;453391;114;923088;-74
2022/02/09 09:10:43;;;;;;;2.48;2.20;;;;;;;2.92;61.18;100483.02;457304;114;922646;-77
2022/02/09 09:12:03;;;;;;;3.01;2.19;;;;;;;2.91;60.82;100494.82;456817;114;922582;-74
2022/02/09 09:40:12;;;;;;;3.47;2.72;;;;;;;2.61;61.32;100503.52;456524;114;922894;-73
2022/02/09 09:58:39;;;;;;;1.78;1.47;;;;;;;2.75;60.72;100519.03;426255;123;922877;-76
2022/02/09 10:01:18;;;;;;;1.76;1.59;;;;;;;2.77;59.82;100519.70;456152;114;922691;-74
2022/02/09 10:03:11;;;;;;;2.85;1.66;;;;;;;2.78;60.22;100521.38;453889;114;922566;-74
2022/02/09 10:05:05;;;;;;;1.61;1.51;;;;;;;2.82;60.22;100527.27;453221;114;923014;-75
2022/02/09 10:14:09;;;;;;;1.86;1.67;;;;;;;2.86;60.18;100518.72;442365;117;923012;-74
2022/02/09 10:33:11;;;;;;;1.88;1.77;;;;;;;3.06;57.66;100535.38;435128;120;922627;-73
2022/02/09 10:34:18;;;;;;;2.21;1.67;;;;;;;3.07;57.42;100538.92;427524;122;922815;-76
2022/02/09 10:35:30;;;;;;;2.04;1.49;;;;;;;3.06;57.36;100526.45;428254;121;923322;-74
2022/02/09 10:36:44;;;;;;;1.52;1.38;;;;;;;3.06;56.23;100535.38;434975;120;922533;-74
2022/02/09 10:37:47;;;;;;;1.43;1.28;;;;;;;3.06;56.02;100539.92;445973;117;922537;-77
2022/02/09 10:39:06;;;;;;;1.71;1.43;;;;;;;3.05;55.92;100532.84;437160;118;922763;-78
2022/02/09 10:40:31;;;;;;;1.51;1.39;;;;;;;3.04;56.20;100541.93;439623;118;930614;-75
2022/02/09 10:41:42;;;;;;;1.43;1.31;;;;;;;2.98;54.75;100539.94;446211;116;930276;-77
2022/02/09 10:42:49;;;;;;;1.83;1.17;;;;;;;2.92;54.91;100530.67;445711;117;923227;-78
2022/02/09 10:44:11;;;;;;;1.21;0.99;;;;;;;2.87;54.81;100544.61;446164;116;923524;-73
2022/02/09 10:45:33;;;;;;;1.66;1.19;;;;;;;2.83;55.07;100542.42;445331;118;922589;-75
2022/02/09 10:46:57;;;;;;;1.68;1.31;;;;;;;2.81;55.35;100533.69;446105;116;922981;-74
2022/02/09 10:48:03;;;;;;;1.72;1.47;;;;;;;2.81;55.64;100537.19;445791;116;923095;-77